Time;durP1;ratioP1;P1;durP2;ratioP2;P2;SDS_P1;SDS_P2;PMS_P1;PMS_P2;Temp;Humidity;BMP_temperature;BMP_pressure;BME280_temperature;BME280_humidity;BME280_pressure;Samples;Min_cycle;Max_cycle;Signal;HPM_P1;HPM_P2
2023/03/12 00:02:06;;;;;;;10.23;4.93;;;3.40;99.90;;;;;;5034188;28;20160;-41
2023/03/12 00:04:33;;;;;;;9.25;4.90;;;3.40;99.90;;;;;;5034184;28;20167;-43
2023/03/12 00:06:59;;;;;;;8.25;5.25;;;3.50;99.90;;;;;;5033865;28;20250;-42
2023/03/12 00:09:24;;;;;;;12.27;5.38;;;3.50;99.90;;;;;;5034075;28;20744;-43
2023/03/12 00:11:50;;;;;;;7.85;4.47;;;3.60;99.90;;;;;;5033908;28;20572;-42
2023/03/12 00:14:15;;;;;;;11.45;4.50;;;3.60;99.90;;;;;;5032423;28;20167;-44
2023/03/12 00:16:41;;;;;;;6.80;4.70;;;3.60;99.90;;;;;;5033861;28;20202;-41
2023/03/12 00:19:07;;;;;;;9.98;4.72;;;3.70;99.90;;;;;;5034152;28;20167;-42
2023/03/12 00:21:32;;;;;;;14.02;6.40;;;3.60;99.90;;;;;;5033854;28;20167;-44
2023/03/12 00:23:58;;;;;;;13.63;6.68;;;3.60;99.90;;;;;;5033318;28;20161;-42
2023/03/12 00:26:23;;;;;;;11.57;6.40;;;3.60;99.90;;;;;;5033732;28;20176;-42
2023/03/12 00:28:49;;;;;;;11.75;5.90;;;3.70;99.90;;;;;;5033585;28;20164;-42
2023/03/12 00:31:21;;;;;;;10.50;5.63;;;3.60;99.90;;;;;;5033941;28;20572;-43
2023/03/12 00:33:50;;;;;;;15.23;5.47;;;3.60;99.90;;;;;;5033626;28;20555;-42
2023/03/12 00:36:17;;;;;;;12.35;5.50;;;3.60;99.90;;;;;;5033522;28;20289;-42
2023/03/12 00:38:43;;;;;;;13.75;5.43;;;3.60;99.90;;;;;;5031919;28;20194;-41
2023/03/12 00:41:08;;;;;;;7.57;4.28;;;3.60;99.90;;;;;;5034049;28;20172;-42
2023/03/12 00:43:34;;;;;;;11.57;4.45;;;3.50;99.90;;;;;;5032072;28;20512;-42
2023/03/12 00:46:00;;;;;;;8.95;4.07;;;3.50;99.90;;;;;;5033353;28;20163;-42
2023/03/12 00:48:25;;;;;;;6.63;4.07;;;3.40;99.90;;;;;;5033440;28;20175;-43
2023/03/12 00:50:51;;;;;;;8.02;4.22;;;3.40;99.90;;;;;;5033291;28;20191;-45
2023/03/12 00:53:16;;;;;;;8.27;4.18;;;3.40;99.90;;;;;;5033365;28;20171;-41
2023/03/12 00:55:42;;;;;;;7.78;4.50;;;3.40;99.90;;;;;;5033215;28;20213;-41
2023/03/12 00:58:07;;;;;;;8.82;4.00;;;3.40;99.90;;;;;;5033489;28;20585;-42
2023/03/12 01:00:33;;;;;;;8.50;3.95;;;3.40;99.90;;;;;;5033041;28;20168;-42
2023/03/12 01:02:59;;;;;;;7.13;3.50;;;3.40;99.90;;;;;;5033001;28;20251;-45
2023/03/12 01:05:24;;;;;;;8.15;3.55;;;3.40;99.90;;;;;;5031890;28;20229;-42
2023/03/12 01:07:50;;;;;;;6.47;4.07;;;3.40;99.90;;;;;;5032501;28;20223;-41
2023/03/12 01:10:17;;;;;;;4.72;3.63;;;3.40;99.90;;;;;;5032553;28;20193;-42
2023/03/12 01:12:43;;;;;;;11.25;3.72;;;3.40;99.90;;;;;;5032916;28;20172;-42
2023/03/12 01:15:13;;;;;;;8.27;4.10;;;3.40;99.90;;;;;;5032938;28;20221;-42
2023/03/12 01:17:38;;;;;;;6.40;3.17;;;3.50;99.90;;;;;;5033094;28;20178;-42
2023/03/12 01:20:04;;;;;;;8.10;4.47;;;3.50;99.90;;;;;;5032699;28;20164;-42
2023/03/12 01:22:30;;;;;;;9.15;3.58;;;3.60;99.90;;;;;;5032743;28;20628;-42
2023/03/12 01:24:56;;;;;;;9.05;3.65;;;3.50;99.90;;;;;;5032950;28;20174;-42
2023/03/12 01:27:22;;;;;;;5.85;3.45;;;3.50;99.90;;;;;;5032263;28;20175;-43
2023/03/12 01:29:47;;;;;;;7.88;4.35;;;3.50;99.90;;;;;;5032300;28;20749;-41
2023/03/12 01:32:13;;;;;;;12.48;4.18;;;3.50;99.90;;;;;;5032405;28;20630;-42
2023/03/12 01:34:38;;;;;;;5.50;3.70;;;3.40;99.90;;;;;;5032728;28;20206;-42
2023/03/12 01:37:05;;;;;;;4.90;3.17;;;3.40;99.90;;;;;;5031835;28;20182;-42
2023/03/12 01:39:31;;;;;;;5.57;3.05;;;3.40;99.90;;;;;;5032311;28;20260;-42
2023/03/12 01:41:57;;;;;;;7.00;2.97;;;3.40;99.90;;;;;;5032180;28;20636;-42
2023/03/12 01:44:22;;;;;;;5.63;3.08;;;3.40;99.90;;;;;;5032340;28;20540;-41
2023/03/12 01:46:48;;;;;;;6.70;3.10;;;3.50;99.90;;;;;;5031935;28;20175;-47
2023/03/12 01:49:33;;;;;;;7.10;2.78;;;3.50;99.90;;;;;;5031992;28;20504;-42
2023/03/12 01:52:06;;;;;;;5.55;2.58;;;3.40;99.90;;;;;;5032338;28;20175;-42
2023/03/12 01:54:37;;;;;;;5.50;2.40;;;3.40;99.90;;;;;;5031722;28;20591;-42
2023/03/12 01:57:07;;;;;;;6.60;2.88;;;3.30;99.90;;;;;;5031917;28;20246;-42
2023/03/12 02:00:03;;;;;;;8.85;3.00;;;3.30;99.90;;;;;;5031961;28;20255;-42
2023/03/12 02:02:29;;;;;;;8.23;2.85;;;3.30;99.90;;;;;;5031517;28;20182;-42
2023/03/12 02:05:11;;;;;;;5.07;2.90;;;3.30;99.90;;;;;;5031812;28;20167;-42
2023/03/12 02:07:37;;;;;;;9.15;3.20;;;3.30;99.90;;;;;;5031832;28;20559;-42
2023/03/12 02:10:04;;;;;;;9.10;3.60;;;3.30;99.90;;;;;;5031761;28;20656;-41
2023/03/12 02:12:30;;;;;;;5.18;3.13;;;3.40;99.90;;;;;;5031788;28;20175;-42
2023/03/12 02:14:56;;;;;;;5.40;3.33;;;3.40;99.90;;;;;;5030479;28;20188;-43
2023/03/12 02:17:22;;;;;;;7.82;3.50;;;3.40;99.90;;;;;;5031818;28;20186;-42
2023/03/12 02:20:06;;;;;;;6.47;3.50;;;3.40;99.90;;;;;;5031607;28;20171;-42
2023/03/12 02:22:34;;;;;;;4.95;3.15;;;3.40;99.90;;;;;;5032008;28;20183;-41
2023/03/12 02:25:24;;;;;;;4.85;3.20;;;3.50;99.90;;;;;;5031744;28;20199;-43
2023/03/12 02:27:50;;;;;;;6.05;3.30;;;3.40;99.90;;;;;;5030931;28;20189;-41
2023/03/12 02:30:17;;;;;;;5.88;3.75;;;3.50;99.90;;;;;;5031181;28;20194;-42
2023/03/12 02:32:45;;;;;;;8.45;3.83;;;3.50;99.90;;;;;;5030303;28;20167;-41
2023/03/12 02:35:14;;;;;;;6.88;3.60;;;3.40;99.90;;;;;;5031354;28;20199;-42
2023/03/12 02:37:54;;;;;;;13.13;4.07;;;3.50;99.90;;;;;;5031828;28;20246;-43
2023/03/12 02:40:50;;;;;;;8.98;3.85;;;3.40;99.90;;;;;;5031259;28;20179;-41
2023/03/12 02:43:20;;;;;;;7.45;3.67;;;3.40;99.90;;;;;;5030555;28;20528;-42
2023/03/12 02:45:46;;;;;;;10.68;4.40;;;3.40;99.90;;;;;;5031099;28;20182;-42
2023/03/12 02:48:11;;;;;;;9.15;4.10;;;3.40;99.90;;;;;;5031095;28;20167;-45
2023/03/12 02:50:37;;;;;;;10.05;3.95;;;3.50;99.90;;;;;;5031595;28;20167;-42
2023/03/12 02:53:03;;;;;;;6.93;3.33;;;3.50;99.90;;;;;;5031154;28;20216;-42
2023/03/12 02:55:28;;;;;;;5.60;3.53;;;3.50;99.90;;;;;;5031200;28;20290;-43
2023/03/12 02:57:54;;;;;;;4.80;3.15;;;3.40;99.90;;;;;;5031306;28;20685;-42
2023/03/12 03:00:19;;;;;;;6.50;3.67;;;3.40;99.90;;;;;;5030855;28;20196;-41
2023/03/12 03:02:45;;;;;;;5.38;3.35;;;3.50;99.90;;;;;;5031074;28;20174;-41
2023/03/12 03:05:11;;;;;;;6.25;3.10;;;3.50;99.90;;;;;;5031247;28;20164;-42
2023/03/12 03:07:37;;;;;;;7.10;3.50;;;3.50;99.90;;;;;;5031598;28;20214;-42
2023/03/12 03:10:04;;;;;;;9.15;3.10;;;3.50;99.90;;;;;;5031192;28;20174;-42
2023/03/12 03:12:34;;;;;;;11.02;4.22;;;3.50;99.90;;;;;;5031082;28;20670;-41
2023/03/12 03:14:59;;;;;;;5.00;3.17;;;3.50;99.90;;;;;;5030761;28;20213;-43
2023/03/12 03:17:25;;;;;;;5.35;3.22;;;3.50;99.90;;;;;;5030863;28;20175;-43
2023/03/12 03:19:51;;;;;;;6.60;3.03;;;3.40;99.90;;;;;;5031167;28;20619;-42
2023/03/12 03:22:18;;;;;;;4.90;3.03;;;3.40;99.90;;;;;;5030736;28;20182;-42
2023/03/12 03:24:44;;;;;;;4.35;3.00;;;3.40;99.90;;;;;;5030581;28;20179;-41
2023/03/12 03:27:10;;;;;;;4.20;3.00;;;3.40;99.90;;;;;;5031325;28;20167;-42
2023/03/12 03:29:36;;;;;;;7.25;3.10;;;3.40;99.90;;;;;;5031178;28;20218;-42
2023/03/12 03:32:02;;;;;;;8.82;3.83;;;3.40;99.90;;;;;;5030694;28;20660;-41
2023/03/12 03:34:27;;;;;;;7.70;3.22;;;3.30;99.90;;;;;;5030575;28;20175;-42
2023/03/12 03:36:53;;;;;;;4.90;2.90;;;3.40;99.90;;;;;;5030763;28;20636;-42
2023/03/12 03:39:19;;;;;;;6.82;2.70;;;3.40;99.90;;;;;;5030611;28;20574;-41
2023/03/12 03:41:46;;;;;;;5.88;3.08;;;3.40;99.90;;;;;;5030868;28;20607;-41
2023/03/12 03:44:12;;;;;;;8.60;3.03;;;3.40;99.90;;;;;;5030888;28;20245;-41
2023/03/12 03:46:38;;;;;;;4.45;2.92;;;3.40;99.90;;;;;;5030724;28;20234;-41
2023/03/12 03:49:04;;;;;;;5.65;2.63;;;3.50;99.90;;;;;;5030435;28;20176;-42
2023/03/12 03:51:30;;;;;;;5.45;2.90;;;3.40;99.90;;;;;;5030465;28;20183;-41
2023/03/12 03:53:59;;;;;;;7.03;2.67;;;3.40;99.90;;;;;;5030666;28;20210;-43
2023/03/12 03:56:24;;;;;;;8.23;3.17;;;3.40;99.90;;;;;;5030468;28;20685;-44
2023/03/12 03:58:50;;;;;;;7.55;2.90;;;3.40;99.90;;;;;;5031665;28;20168;-42
2023/03/12 04:01:15;;;;;;;5.70;2.50;;;3.50;99.90;;;;;;5034233;28;20167;-43
2023/03/12 04:03:41;;;;;;;4.05;2.55;;;3.50;99.90;;;;;;5034316;28;20180;-41
2023/03/12 04:06:07;;;;;;;6.95;2.70;;;3.50;99.90;;;;;;5034478;28;20168;-42
2023/03/12 04:08:34;;;;;;;9.77;2.72;;;3.40;99.90;;;;;;5034053;28;20175;-43
2023/03/12 04:11:07;;;;;;;5.07;2.50;;;3.50;99.90;;;;;;5034266;28;20198;-47
2023/03/12 04:13:33;;;;;;;5.00;2.45;;;3.50;99.90;;;;;;5033962;28;20250;-45
2023/03/12 04:15:58;;;;;;;4.38;2.75;;;3.50;99.90;;;;;;5033273;28;20743;-44
2023/03/12 04:18:24;;;;;;;8.98;2.63;;;3.50;99.90;;;;;;5033701;28;20183;-43
2023/03/12 04:20:50;;;;;;;6.97;2.55;;;3.50;99.90;;;;;;5033747;28;20168;-43
2023/03/12 04:23:16;;;;;;;5.35;3.00;;;3.50;99.90;;;;;;5033762;28;20164;-43
2023/03/12 04:25:41;;;;;;;3.58;2.30;;;3.40;99.90;;;;;;5033639;28;20524;-42
2023/03/12 04:28:07;;;;;;;8.55;2.85;;;3.40;99.90;;;;;;5033984;28;20171;-42
2023/03/12 04:30:33;;;;;;;4.93;2.25;;;3.40;99.90;;;;;;5033565;28;20174;-41
2023/03/12 04:32:58;;;;;;;6.07;2.25;;;3.40;99.90;;;;;;5033689;28;20217;-41
2023/03/12 04:35:24;;;;;;;3.45;2.03;;;3.50;99.90;;;;;;5033469;28;20622;-43
2023/03/12 04:37:52;;;;;;;4.68;2.17;;;3.50;99.90;;;;;;5032272;28;20313;-46
2023/03/12 04:40:18;;;;;;;5.57;2.38;;;3.50;99.90;;;;;;5033189;28;20250;-41
2023/03/12 04:42:44;;;;;;;4.85;2.00;;;3.50;99.90;;;;;;5033423;28;20175;-48
2023/03/12 04:45:10;;;;;;;3.40;2.15;;;3.50;99.90;;;;;;5033278;28;20175;-41
2023/03/12 04:47:36;;;;;;;3.78;2.17;;;3.50;99.90;;;;;;5032949;28;20171;-42
2023/03/12 04:50:02;;;;;;;6.07;2.92;;;3.50;99.90;;;;;;5033207;28;20197;-44
2023/03/12 04:52:28;;;;;;;4.10;2.08;;;3.50;99.90;;;;;;5033559;28;20184;-41
2023/03/12 04:54:54;;;;;;;4.25;2.10;;;3.50;99.90;;;;;;5032814;28;20199;-41
2023/03/12 04:57:20;;;;;;;9.07;2.38;;;3.50;99.90;;;;;;5033215;28;20191;-42
2023/03/12 04:59:46;;;;;;;5.90;2.20;;;3.50;99.90;;;;;;5032842;28;20218;-41
2023/03/12 05:02:11;;;;;;;7.45;2.88;;;3.50;99.90;;;;;;5033016;28;20167;-41
2023/03/12 05:04:37;;;;;;;4.85;2.40;;;3.50;99.90;;;;;;5033385;28;20175;-42
2023/03/12 05:07:02;;;;;;;5.82;2.28;;;3.50;99.90;;;;;;5032845;28;20263;-41
2023/03/12 05:09:28;;;;;;;6.93;2.80;;;3.50;99.90;;;;;;5032400;28;20206;-42
2023/03/12 05:11:54;;;;;;;4.75;2.80;;;3.50;99.90;;;;;;5032021;28;20171;-41
2023/03/12 05:14:19;;;;;;;5.72;2.88;;;3.40;99.90;;;;;;5032750;28;20250;-42
2023/03/12 05:16:45;;;;;;;5.85;2.60;;;6.40;99.90;;;;;;5032428;28;20215;-41
2023/03/12 05:19:11;;;;;;;4.57;2.00;;;3.30;99.90;;;;;;5032705;28;20170;-41
2023/03/12 05:21:41;;;;;;;4.50;2.47;;;3.40;99.90;;;;;;5033044;28;20163;-41
2023/03/12 05:24:07;;;;;;;9.70;4.28;;;3.40;99.90;;;;;;5033187;28;20176;-42
2023/03/12 05:26:33;;;;;;;8.60;4.15;;;3.40;99.90;;;;;;5032528;28;20159;-41
2023/03/12 05:29:00;;;;;;;4.70;2.78;;;3.40;99.90;;;;;;5032529;28;20635;-41
2023/03/12 05:31:26;;;;;;;5.50;2.85;;;3.40;99.90;;;;;;5032521;28;20167;-41
2023/03/12 05:33:52;;;;;;;6.32;2.75;;;3.40;99.90;;;;;;5032598;28;20250;-41
2023/03/12 05:36:18;;;;;;;5.68;2.85;;;3.40;99.90;;;;;;5032133;28;20218;-41
2023/03/12 05:38:44;;;;;;;13.88;4.05;;;3.30;99.90;;;;;;5032405;28;20164;-41
2023/03/12 05:41:21;;;;;;;16.92;5.50;;;3.30;99.90;;;;;;5032793;28;20201;-41
2023/03/12 05:43:47;;;;;;;8.35;4.35;;;3.40;99.90;;;;;;5032136;28;20167;-42
2023/03/12 05:46:13;;;;;;;9.35;4.93;;;3.30;99.90;;;;;;5032259;28;20177;-41
2023/03/12 05:48:38;;;;;;;17.80;7.38;;;3.20;99.90;;;;;;5032659;28;20171;-41
2023/03/12 05:51:04;;;;;;;8.18;4.32;;;3.40;99.90;;;;;;5032182;28;20173;-41
2023/03/12 05:53:30;;;;;;;6.07;3.35;;;3.30;99.90;;;;;;5032172;28;20171;-42
2023/03/12 05:56:02;;;;;;;6.63;3.75;;;3.30;99.90;;;;;;5031715;28;20290;-41
2023/03/12 05:58:27;;;;;;;5.63;3.55;;;3.30;99.90;;;;;;5032035;28;20175;-41
2023/03/12 06:00:53;;;;;;;10.55;4.25;;;3.10;99.90;;;;;;5032153;28;20181;-41
2023/03/12 06:03:18;;;;;;;10.38;4.68;;;3.20;99.90;;;;;;5031787;28;20168;-42
2023/03/12 06:05:46;;;;;;;4.20;3.10;;;3.00;99.90;;;;;;5032220;28;20218;-41
2023/03/12 06:08:13;;;;;;;10.57;4.65;;;3.00;99.90;;;;;;5031722;28;20753;-41
2023/03/12 06:10:39;;;;;;;4.47;3.30;;;3.00;99.90;;;;;;5032473;28;20525;-41
2023/03/12 06:13:05;;;;;;;6.18;3.08;;;5.70;99.90;;;;;;5032447;28;20195;-42
2023/03/12 06:15:31;;;;;;;7.43;3.53;;;3.00;99.90;;;;;;5031638;28;20561;-41
2023/03/12 06:17:56;;;;;;;5.68;2.88;;;3.00;99.90;;;;;;5031743;28;20178;-41
2023/03/12 06:20:22;;;;;;;6.38;2.85;;;3.10;99.90;;;;;;5031517;28;20240;-42
2023/03/12 06:22:48;;;;;;;5.80;3.10;;;3.00;99.90;;;;;;5031230;28;20216;-41
2023/03/12 06:25:14;;;;;;;12.73;4.82;;;3.10;99.90;;;;;;5031619;28;20170;-41
2023/03/12 06:27:39;;;;;;;7.35;2.75;;;3.00;99.90;;;;;;5031852;28;20635;-41
2023/03/12 06:30:06;;;;;;;8.13;2.92;;;2.90;99.90;;;;;;5031847;28;20186;-42
2023/03/12 06:32:31;;;;;;;6.90;3.05;;;3.00;99.90;;;;;;5031820;28;20225;-43
2023/03/12 06:34:59;;;;;;;26.90;10.50;;;3.00;99.90;;;;;;5031287;28;20203;-41
2023/03/12 06:37:25;;;;;;;5.38;3.05;;;2.90;99.90;;;;;;5031430;28;20175;-41
2023/03/12 06:39:51;;;;;;;7.28;3.60;;;2.90;99.90;;;;;;5031509;28;20160;-41
2023/03/12 06:42:18;;;;;;;12.38;4.85;;;3.10;99.90;;;;;;5031381;28;20654;-41
2023/03/12 06:44:44;;;;;;;7.05;3.25;;;3.00;99.90;;;;;;5031707;28;20171;-41
2023/03/12 06:47:09;;;;;;;7.18;3.67;;;3.10;99.90;;;;;;5031176;28;20627;-42
2023/03/12 06:49:36;;;;;;;12.52;3.67;;;3.10;99.90;;;;;;5031642;28;20202;-41
2023/03/12 06:52:02;;;;;;;6.38;3.00;;;3.10;99.90;;;;;;5031975;28;20175;-43
2023/03/12 06:54:28;;;;;;;12.25;3.90;;;3.10;99.90;;;;;;5031626;28;20262;-42
2023/03/12 06:56:53;;;;;;;13.05;5.78;;;3.20;99.90;;;;;;5031675;28;20210;-41
2023/03/12 06:59:20;;;;;;;10.60;3.90;;;3.30;99.90;;;;;;5031597;28;20171;-41
2023/03/12 07:01:46;;;;;;;10.90;3.40;;;3.30;99.90;;;;;;5031907;28;20205;-41
2023/03/12 07:04:12;;;;;;;9.52;4.03;;;3.30;99.90;;;;;;5032020;28;20174;-41
2023/03/12 07:06:37;;;;;;;8.10;3.22;;;3.40;99.90;;;;;;5031942;28;20215;-42
2023/03/12 07:09:03;;;;;;;9.23;3.65;;;3.40;99.90;;;;;;5031593;28;20671;-41
2023/03/12 07:11:29;;;;;;;8.57;4.32;;;3.30;99.90;;;;;;5031682;28;20174;-43
2023/03/12 07:13:56;;;;;;;17.65;6.30;;;1.00;99.90;;;;;;5031195;28;20187;-45
2023/03/12 07:16:21;;;;;;;12.73;4.00;;;3.40;99.90;;;;;;5031272;28;20218;-42
2023/03/12 07:18:47;;;;;;;8.93;4.32;;;3.40;99.90;;;;;;5031263;28;20171;-42
2023/03/12 07:21:15;;;;;;;10.63;3.42;;;3.40;99.90;;;;;;5031141;28;20261;-42
2023/03/12 07:23:41;;;;;;;10.32;3.70;;;3.50;99.90;;;;;;5031756;28;20168;-42
2023/03/12 07:26:14;;;;;;;10.88;4.63;;;3.50;99.90;;;;;;5031361;28;20166;-41
2023/03/12 07:28:39;;;;;;;6.00;3.90;;;3.60;99.90;;;;;;5030942;28;20209;-41
2023/03/12 07:31:05;;;;;;;10.68;4.70;;;3.70;99.90;;;;;;5031438;28;22077;-42
2023/03/12 07:33:31;;;;;;;18.55;6.40;;;3.70;99.90;;;;;;5032024;28;20639;-42
2023/03/12 07:35:57;;;;;;;56.55;15.95;;;3.70;99.90;;;;;;5035193;28;20339;-42
2023/03/12 07:38:22;;;;;;;44.47;14.23;;;3.80;99.90;;;;;;5035043;28;20711;-46
2023/03/12 07:40:52;;;;;;;19.02;6.80;;;3.80;99.90;;;;;;5034849;28;20182;-48
2023/03/12 07:43:18;;;;;;;40.15;11.85;;;3.80;99.90;;;;;;5035157;28;20218;-50
2023/03/12 07:45:44;;;;;;;29.08;10.40;;;3.90;99.90;;;;;;5034810;28;20241;-48
2023/03/12 07:48:10;;;;;;;30.52;10.05;;;3.90;99.90;;;;;;5035134;28;20187;-41
2023/03/12 07:50:36;;;;;;;23.30;7.70;;;4.00;99.90;;;;;;5035500;28;20175;-42
2023/03/12 07:53:03;;;;;;;13.30;5.90;;;4.00;99.90;;;;;;5035358;28;20171;-41
2023/03/12 07:55:29;;;;;;;13.43;5.28;;;4.10;99.90;;;;;;5033751;28;20271;-42
2023/03/12 07:57:57;;;;;;;24.35;8.63;;;4.10;99.90;;;;;;5035191;28;20179;-43
2023/03/12 08:00:23;;;;;;;22.42;8.95;;;4.10;99.90;;;;;;5035117;28;20175;-41
2023/03/12 08:02:49;;;;;;;14.30;8.25;;;4.10;99.90;;;;;;5033749;28;20179;-42
2023/03/12 08:05:14;;;;;;;12.38;7.22;;;4.10;99.90;;;;;;5034806;28;20254;-43
2023/03/12 08:07:40;;;;;;;22.60;6.95;;;4.20;99.90;;;;;;5034291;28;20254;-42
2023/03/12 08:10:07;;;;;;;15.68;6.18;;;4.20;99.90;;;;;;5034909;28;20175;-41
2023/03/12 08:12:33;;;;;;;23.05;8.23;;;4.20;99.90;;;;;;5034428;28;20250;-41
2023/03/12 08:14:58;;;;;;;11.73;4.93;;;4.30;99.90;;;;;;5034078;28;20283;-41
2023/03/12 08:17:24;;;;;;;10.23;5.10;;;4.20;99.90;;;;;;5034383;28;20254;-42
2023/03/12 08:19:50;;;;;;;15.02;6.63;;;4.30;99.90;;;;;;5034429;28;20527;-43
2023/03/12 08:22:15;;;;;;;9.05;4.65;;;4.50;99.90;;;;;;5034140;28;20171;-45
2023/03/12 08:24:42;;;;;;;7.55;4.63;;;4.60;99.90;;;;;;5034292;28;20174;-42
2023/03/12 08:27:08;;;;;;;28.05;9.43;;;4.50;99.90;;;;;;5034381;28;20254;-42
2023/03/12 08:29:33;;;;;;;22.67;7.25;;;4.50;99.90;;;;;;5033506;28;20263;-44
2023/03/12 08:31:59;;;;;;;6.32;4.40;;;4.50;99.90;;;;;;5032265;28;20516;-42
2023/03/12 08:34:25;;;;;;;7.55;4.35;;;4.50;99.90;;;;;;5033530;28;20204;-41
2023/03/12 08:36:50;;;;;;;9.70;5.13;;;4.60;99.90;;;;;;5033569;28;20211;-42
2023/03/12 08:39:16;;;;;;;15.65;6.40;;;4.70;99.90;;;;;;5033489;28;20646;-42
2023/03/12 08:41:41;;;;;;;14.07;6.20;;;4.60;99.90;;;;;;5033667;28;20261;-43
2023/03/12 08:44:07;;;;;;;32.17;11.07;;;4.80;99.90;;;;;;5033549;28;20251;-44
2023/03/12 08:46:33;;;;;;;11.15;5.68;;;4.90;99.90;;;;;;5033556;28;20171;-42
2023/03/12 08:49:00;;;;;;;26.15;10.35;;;5.00;99.90;;;;;;5033045;28;20171;-41
2023/03/12 08:51:26;;;;;;;16.52;7.82;;;4.90;99.90;;;;;;5033318;28;20175;-43
2023/03/12 08:53:51;;;;;;;10.13;4.47;;;4.90;99.90;;;;;;5033232;28;20159;-41
2023/03/12 08:56:17;;;;;;;8.80;4.93;;;5.00;99.90;;;;;;5033351;28;20574;-42
2023/03/12 08:58:42;;;;;;;6.97;4.15;;;5.10;99.90;;;;;;5032898;28;20166;-45
2023/03/12 09:01:10;;;;;;;9.30;4.95;;;4.90;99.90;;;;;;5032279;28;20171;-45
2023/03/12 09:03:35;;;;;;;6.88;4.60;;;4.90;99.90;;;;;;5033239;28;20160;-45
2023/03/12 09:06:11;;;;;;;5.70;4.35;;;4.90;99.90;;;;;;5032584;28;20168;-48
2023/03/12 09:08:38;;;;;;;9.35;3.90;;;5.00;99.90;;;;;;5033546;28;20179;-42
2023/03/12 09:11:04;;;;;;;9.38;4.22;;;4.90;99.90;;;;;;5032504;28;20171;-45
2023/03/12 09:13:29;;;;;;;6.65;5.15;;;4.80;99.90;;;;;;5033215;28;20171;-48
2023/03/12 09:16:00;;;;;;;10.48;5.55;;;4.80;99.90;;;;;;5032677;28;20264;-44
2023/03/12 09:18:26;;;;;;;7.72;4.68;;;5.00;99.90;;;;;;5032885;28;20575;-42
2023/03/12 09:20:51;;;;;;;9.25;5.63;;;5.00;99.90;;;;;;5032848;28;20635;-42
2023/03/12 09:23:17;;;;;;;8.68;4.70;;;5.10;99.90;;;;;;5032426;28;20167;-42
2023/03/12 09:25:47;;;;;;;8.00;4.65;;;5.10;99.90;;;;;;5032192;28;20205;-41
2023/03/12 09:28:13;;;;;;;7.05;4.72;;;5.20;99.90;;;;;;5033212;28;20530;-41
2023/03/12 09:30:39;;;;;;;5.72;4.15;;;5.30;99.90;;;;;;5032794;28;20171;-44
2023/03/12 09:33:05;;;;;;;6.40;4.10;;;5.30;99.90;;;;;;5032288;28;20202;-42
2023/03/12 09:35:31;;;;;;;7.93;4.85;;;5.30;99.90;;;;;;5032460;28;20242;-42
2023/03/12 09:37:57;;;;;;;6.70;4.43;;;5.20;99.90;;;;;;5032704;28;20163;-42
2023/03/12 09:40:25;;;;;;;7.47;4.20;;;5.50;99.90;;;;;;5032650;28;20182;-42
2023/03/12 09:43:02;;;;;;;6.53;4.78;;;5.30;99.90;;;;;;5032354;28;20178;-42
2023/03/12 09:45:42;;;;;;;8.80;5.35;;;5.30;99.90;;;;;;5032009;28;20179;-45
2023/03/12 09:48:19;;;;;;;7.50;5.43;;;5.60;99.90;;;;;;5032624;28;20175;-43
2023/03/12 09:50:49;;;;;;;7.40;6.47;;;5.40;99.90;;;;;;5032290;28;20177;-42
2023/03/12 09:53:26;;;;;;;10.82;7.78;;;5.60;99.90;;;;;;5032284;28;20545;-42
2023/03/12 09:55:54;;;;;;;11.27;8.23;;;5.90;99.90;;;;;;5031605;28;20571;-44
2023/03/12 09:58:32;;;;;;;12.18;8.80;;;6.10;99.90;;;;;;5031934;28;20167;-44
2023/03/12 10:01:16;;;;;;;12.20;9.15;;;6.20;99.90;;;;;;5032042;28;20661;-42
2023/03/12 10:04:07;;;;;;;13.38;9.02;;;6.30;99.90;;;;;;5031877;28;20163;-41
2023/03/12 10:07:10;;;;;;;10.70;8.30;;;6.50;99.90;;;;;;5032014;28;20210;-42
2023/03/12 10:10:00;;;;;;;12.20;7.47;;;6.70;99.90;;;;;;5032185;28;20646;-42
2023/03/12 10:12:28;;;;;;;11.00;7.45;;;6.70;99.90;;;;;;5031601;28;20305;-43
2023/03/12 10:15:51;;;;;;;11.98;7.00;;;6.80;99.90;;;;;;5031189;28;20701;-42
2023/03/12 10:18:30;;;;;;;9.65;6.15;;;6.70;99.90;;;;;;5029108;28;20628;-42
2023/03/12 10:21:10;;;;;;;5.20;4.20;;;6.90;99.90;;;;;;5029306;28;20171;-41
2023/03/12 10:23:54;;;;;;;5.25;3.55;;;6.90;99.90;;;;;;5031237;28;20175;-41
2023/03/12 10:26:46;;;;;;;8.52;4.15;;;6.90;99.90;;;;;;5031972;28;20172;-42
2023/03/12 10:29:25;;;;;;;6.00;3.75;;;6.90;99.90;;;;;;5031509;28;20167;-42
2023/03/12 10:32:03;;;;;;;7.25;4.10;;;7.10;99.90;;;;;;5031357;28;20202;-42
2023/03/12 10:34:40;;;;;;;6.70;4.18;;;7.00;99.90;;;;;;5031384;28;20175;-42
2023/03/12 10:37:27;;;;;;;7.15;4.30;;;7.20;99.90;;;;;;5017300;28;20237;-42
2023/03/12 10:39:54;;;;;;;5.35;4.18;;;7.30;99.90;;;;;;5031281;28;20647;-42
2023/03/12 10:42:25;;;;;;;6.95;3.95;;;7.20;99.90;;;;;;5031174;28;20175;-41
2023/03/12 10:44:57;;;;;;;9.60;4.82;;;7.30;99.90;;;;;;5031204;28;20218;-44
2023/03/12 10:47:39;;;;;;;12.48;4.90;;;7.50;99.90;;;;;;5031287;28;20263;-42
2023/03/12 10:50:26;;;;;;;10.75;5.25;;;7.60;99.90;;;;;;5031757;28;20218;-41
2023/03/12 10:53:11;;;;;;;7.75;5.43;;;7.80;99.90;;;;;;5031312;28;20175;-42
2023/03/12 10:55:37;;;;;;;8.20;4.40;;;7.90;99.90;;;;;;5031362;28;20217;-42
2023/03/12 10:58:02;;;;;;;12.60;5.60;;;8.10;99.90;;;;;;5031054;28;20171;-42
2023/03/12 11:00:31;;;;;;;13.50;5.15;;;8.10;99.90;;;;;;5031462;28;20194;-41
2023/03/12 11:03:02;;;;;;;11.73;4.88;;;8.30;99.90;;;;;;5030946;28;20601;-41
2023/03/12 11:05:32;;;;;;;14.70;6.80;;;8.40;99.90;;;;;;5031203;28;20178;-42
2023/03/12 11:08:00;;;;;;;15.63;7.13;;;8.40;99.90;;;;;;5032568;28;20608;-42
2023/03/12 11:10:41;;;;;;;21.48;6.40;;;8.60;99.90;;;;;;5035401;28;20179;-42
2023/03/12 11:13:35;;;;;;;22.17;8.27;;;8.50;99.90;;;;;;5035703;28;20175;-41
2023/03/12 11:16:27;;;;;;;19.90;5.70;;;8.60;99.90;;;;;;5034710;28;20218;-43
2023/03/12 11:19:02;;;;;;;28.08;7.78;;;8.60;99.90;;;;;;5034828;28;20202;-42
2023/03/12 11:21:30;;;;;;;24.00;7.22;;;8.70;99.90;;;;;;5035043;28;20165;-42
2023/03/12 11:23:56;;;;;;;15.32;6.88;;;8.60;99.90;;;;;;5034912;28;20252;-42
2023/03/12 11:26:23;;;;;;;24.67;7.82;;;8.70;99.90;;;;;;5034865;28;20635;-42
2023/03/12 11:28:55;;;;;;;20.15;8.07;;;8.80;99.90;;;;;;5034863;28;20171;-41
2023/03/12 11:31:44;;;;;;;25.10;7.97;;;8.80;99.90;;;;;;5034946;28;20166;-42
2023/03/12 11:34:24;;;;;;;24.77;8.55;;;8.80;99.90;;;;;;5034566;28;20198;-41
2023/03/12 11:36:53;;;;;;;21.83;8.18;;;8.90;99.90;;;;;;5034474;28;20295;-41
2023/03/12 11:39:38;;;;;;;18.80;7.30;;;9.00;99.90;;;;;;5034708;28;20573;-41
2023/03/12 11:42:09;;;;;;;19.20;7.63;;;9.00;99.90;;;;;;5034668;28;20645;-42
2023/03/12 11:44:44;;;;;;;18.77;7.88;;;9.10;99.90;;;;;;5034469;28;20174;-41
2023/03/12 11:47:28;;;;;;;21.27;6.88;;;9.10;99.90;;;;;;5034614;28;20556;-41
2023/03/12 11:50:19;;;;;;;22.60;7.30;;;9.10;99.90;;;;;;5034466;28;20598;-41
2023/03/12 11:52:53;;;;;;;17.42;6.47;;;9.10;99.90;;;;;;5034432;28;20704;-42
2023/03/12 11:55:48;;;;;;;24.42;7.55;;;9.20;99.90;;;;;;5034046;28;20678;-42
2023/03/12 11:58:23;;;;;;;20.27;6.60;;;9.30;99.90;;;;;;5034370;28;20178;-42
2023/03/12 12:01:11;;;;;;;16.90;6.43;;;9.50;99.90;;;;;;5034273;28;20166;-41
2023/03/12 12:04:07;;;;;;;21.55;6.07;;;9.70;99.90;;;;;;5034377;28;20175;-42
2023/03/12 12:06:44;;;;;;;14.57;6.15;;;9.90;99.90;;;;;;5034026;28;20215;-41
2023/03/12 12:09:22;;;;;;;17.48;4.97;;;10.20;99.90;;;;;;5034114;28;20163;-41
2023/03/12 12:12:11;;;;;;;20.90;6.20;;;10.40;99.90;;;;;;5034106;28;20215;-42
2023/03/12 12:14:43;;;;;;;22.13;6.43;;;10.70;99.90;;;;;;5034041;28;20199;-42
2023/03/12 12:17:17;;;;;;;18.92;6.63;;;10.90;99.90;;;;;;5034375;28;20222;-42
2023/03/12 12:20:08;;;;;;;19.50;6.28;;;10.90;99.90;;;;;;5033297;28;20170;-41
2023/03/12 12:23:00;;;;;;;17.00;5.32;;;11.00;99.90;;;;;;5034030;28;20172;-41
2023/03/12 12:25:48;;;;;;;17.70;4.57;;;11.00;99.90;;;;;;5033834;28;20155;-42
2023/03/12 12:28:22;;;;;;;13.48;4.15;;;11.00;99.90;;;;;;5033727;28;20167;-42
2023/03/12 12:31:13;;;;;;;10.50;4.78;;;11.00;99.90;;;;;;5033595;28;20231;-42
2023/03/12 12:33:39;;;;;;;18.73;5.63;;;11.00;99.90;;;;;;5033386;28;20261;-41
2023/03/12 12:36:09;;;;;;;16.42;4.95;;;10.90;99.90;;;;;;5033850;28;20739;-41
2023/03/12 12:38:41;;;;;;;21.88;5.53;;;10.90;99.90;;;;;;5033938;28;20190;-42
2023/03/12 12:41:43;;;;;;;16.55;4.65;;;10.90;99.90;;;;;;5033655;28;20518;-41
2023/03/12 12:44:17;;;;;;;22.15;6.25;;;11.00;99.90;;;;;;5032393;28;20269;-41
2023/03/12 12:46:49;;;;;;;21.10;6.15;;;11.20;99.90;;;;;;5033420;28;20640;-41
2023/03/12 12:49:34;;;;;;;20.23;4.85;;;11.40;99.90;;;;;;5033678;28;20607;-42
2023/03/12 12:52:05;;;;;;;18.63;4.22;;;11.50;99.90;;;;;;5033058;28;20175;-42
2023/03/12 12:54:47;;;;;;;14.15;4.45;;;11.50;99.90;;;;;;5033316;28;20167;-41
2023/03/12 12:57:24;;;;;;;18.15;4.28;;;11.60;99.90;;;;;;5033361;28;20286;-42
2023/03/12 13:00:11;;;;;;;14.30;3.70;;;11.50;99.90;;;;;;5033168;28;20167;-41
2023/03/12 13:02:39;;;;;;;16.70;4.00;;;14.10;99.90;;;;;;5032960;28;20202;-44
2023/03/12 13:05:19;;;;;;;10.23;2.58;;;11.30;99.90;;;;;;5033015;28;20174;-42
2023/03/12 13:07:44;;;;;;;14.15;4.10;;;11.30;99.90;;;;;;5032564;28;20215;-41